Time;durP1;ratioP1;P1;durP2;ratioP2;P2;SDS_P1;SDS_P2;PMS_P1;PMS_P2;Temp;Humidity;BMP_temperature;BMP_pressure;BME280_temperature;BME280_humidity;BME280_pressure;Samples;Min_cycle;Max_cycle;Signal;HPM_P1;HPM_P2
2023/02/11 00:04:23;;;;;;;;;;;;;;;-2.96;100.00;97533.81;10544585;28;1901;-80
2023/02/11 00:09:26;;;;;;;;;;;;;;;-3.00;100.00;97537.69;10525051;28;2081;-75
2023/02/11 00:14:29;;;;;;;;;;;;;;;-3.04;100.00;97538.97;10520271;28;1989;-75
2023/02/11 00:19:32;;;;;;;;;;;;;;;-3.08;100.00;97543.69;10523942;28;1986;-75
2023/02/11 00:24:34;;;;;;;;;;;;;;;-3.11;100.00;97538.72;10531468;28;2081;-75
2023/02/11 00:29:37;;;;;;;;;;;;;;;-2.97;100.00;97540.06;10523606;28;1955;-74
2023/02/11 00:34:39;;;;;;;;;;;;;;;-3.02;100.00;97532.59;10531387;28;1998;-76
2023/02/11 00:39:41;;;;;;;;;;;;;;;-2.93;100.00;97530.88;10526614;28;1907;-75
2023/02/11 00:44:44;;;;;;;;;;;;;;;-2.99;100.00;97528.81;10524086;28;1911;-74
2023/02/11 00:49:46;;;;;;;;;;;;;;;-3.00;100.00;97528.00;10521466;28;1979;-72
2023/02/11 00:54:49;;;;;;;;;;;;;;;-3.01;100.00;97513.19;10524336;28;2112;-74
2023/02/11 00:59:51;;;;;;;;;;;;;;;-2.96;100.00;97510.13;10527456;28;1985;-76
2023/02/11 01:04:54;;;;;;;;;;;;;;;-2.89;100.00;97516.47;10524713;28;1923;-74
2023/02/11 01:09:56;;;;;;;;;;;;;;;-2.99;100.00;97515.66;10530953;28;1954;-75
2023/02/11 01:14:59;;;;;;;;;;;;;;;-3.00;100.00;97508.75;10534806;28;2034;-75
2023/02/11 01:20:01;;;;;;;;;;;;;;;-3.10;100.00;97516.72;10534156;28;2196;-76
2023/02/11 01:25:04;;;;;;;;;;;;;;;-3.10;100.00;97514.06;10533155;28;2000;-75
2023/02/11 01:30:06;;;;;;;;;;;;;;;-3.05;100.00;97505.75;10528982;28;2082;-74
2023/02/11 01:35:08;;;;;;;;;;;;;;;-3.13;100.00;97503.00;10531440;28;3483;-74
2023/02/11 01:40:11;;;;;;;;;;;;;;;-3.16;100.00;97504.13;10528283;28;2163;-73
2023/02/11 01:45:13;;;;;;;;;;;;;;;-3.15;100.00;97499.69;10536532;28;1915;-77
2023/02/11 01:50:15;;;;;;;;;;;;;;;-3.13;100.00;97503.81;10528297;28;2089;-76
2023/02/11 02:00:43;;;;;;;;;;;;;;;-3.20;100.00;97505.38;10473514;28;2100;-74
2023/02/11 02:05:46;;;;;;;;;;;;;;;-3.26;100.00;97514.69;10533363;28;1998;-74
2023/02/11 02:10:48;;;;;;;;;;;;;;;-3.36;100.00;97500.75;10535499;28;1982;-74
2023/02/11 02:15:51;;;;;;;;;;;;;;;-3.36;100.00;97498.13;10534238;28;2065;-74
2023/02/11 02:20:53;;;;;;;;;;;;;;;-3.36;100.00;97495.50;10523671;28;2136;-74
2023/02/11 02:25:56;;;;;;;;;;;;;;;-3.40;100.00;97480.16;10532355;28;2065;-75
2023/02/11 02:30:59;;;;;;;;;;;;;;;-3.40;100.00;97465.19;10525934;28;2087;-75
2023/02/11 02:36:01;;;;;;;;;;;;;;;-3.41;100.00;97458.28;10523228;28;1970;-73
2023/02/11 02:41:04;;;;;;;;;;;;;;;-3.41;100.00;97450.41;10524356;28;2174;-76
2023/02/11 02:46:06;;;;;;;;;;;;;;;-3.36;100.00;97455.22;10498241;28;2094;-74
2023/02/11 02:51:09;;;;;;;;;;;;;;;-3.35;100.00;97457.72;10528279;28;1979;-74
2023/02/11 02:56:11;;;;;;;;;;;;;;;-3.26;100.00;97440.22;10521851;28;2213;-74
2023/02/11 03:01:13;;;;;;;;;;;;;;;-3.24;100.00;97426.91;10524800;28;2014;-74
2023/02/11 03:06:16;;;;;;;;;;;;;;;-3.11;100.00;97427.41;10522186;28;2015;-74
2023/02/11 03:11:19;;;;;;;;;;;;;;;-3.09;100.00;97421.03;10507178;28;2166;-74
2023/02/11 03:16:21;;;;;;;;;;;;;;;-3.13;100.00;97409.13;10528948;28;1965;-74
2023/02/11 03:21:23;;;;;;;;;;;;;;;-3.12;100.00;97407.31;10529582;28;2113;-74
2023/02/11 03:26:26;;;;;;;;;;;;;;;-3.04;100.00;97397.72;10523560;28;2057;-73
2023/02/11 03:31:28;;;;;;;;;;;;;;;-3.10;100.00;97402.75;10523711;28;1984;-72
2023/02/11 03:36:31;;;;;;;;;;;;;;;-3.08;100.00;97398.16;10523093;28;2090;-73
2023/02/11 03:41:33;;;;;;;;;;;;;;;-3.10;100.00;97414.09;10530829;28;2057;-75
2023/02/11 03:46:36;;;;;;;;;;;;;;;-3.21;100.00;97410.84;10526803;28;1900;-76
2023/02/11 03:51:38;;;;;;;;;;;;;;;-3.31;100.00;97406.50;10527262;28;2035;-75
2023/02/11 03:56:40;;;;;;;;;;;;;;;-3.32;100.00;97417.97;10536945;28;1974;-75
2023/02/11 04:01:43;;;;;;;;;;;;;;;-3.39;100.00;97411.63;10537042;28;2113;-75
2023/02/11 04:06:45;;;;;;;;;;;;;;;-3.27;100.00;97410.47;10524809;28;2154;-74
2023/02/11 04:11:48;;;;;;;;;;;;;;;-3.22;100.00;97414.47;10523775;28;1977;-74
2023/02/11 04:16:50;;;;;;;;;;;;;;;-3.15;100.00;97418.16;10518470;28;1963;-73
2023/02/11 04:21:53;;;;;;;;;;;;;;;-3.06;100.00;97433.88;10514985;28;2073;-76
2023/02/11 04:26:55;;;;;;;;;;;;;;;-3.05;100.00;97429.47;10523506;28;1958;-74
2023/02/11 04:31:57;;;;;;;;;;;;;;;-2.94;100.00;97431.84;10524986;28;2000;-74
2023/02/11 04:37:00;;;;;;;;;;;;;;;-2.92;100.00;97429.09;10520184;28;1978;-74
2023/02/11 04:42:03;;;;;;;;;;;;;;;-2.88;100.00;97446.22;10524552;28;2121;-74
2023/02/11 04:47:05;;;;;;;;;;;;;;;-2.86;100.00;97453.03;10522475;28;2022;-73
2023/02/11 04:52:08;;;;;;;;;;;;;;;-2.74;100.00;97451.78;10527975;28;2101;-74
2023/02/11 04:57:10;;;;;;;;;;;;;;;-2.79;100.00;97469.03;10519926;28;1946;-74
2023/02/11 05:02:12;;;;;;;;;;;;;;;-2.80;100.00;97468.22;10521526;28;2049;-75
2023/02/11 05:07:15;;;;;;;;;;;;;;;-2.76;100.00;97460.84;10504843;28;1960;-74
2023/02/11 05:12:17;;;;;;;;;;;;;;;-2.65;100.00;97454.53;10519445;28;2125;-73
2023/02/11 05:17:20;;;;;;;;;;;;;;;-2.43;100.00;97450.63;10522381;28;1958;-75
2023/02/11 05:22:22;;;;;;;;;;;;;;;-2.31;100.00;97450.22;10515573;28;1994;-74
2023/02/11 05:27:24;;;;;;;;;;;;;;;-2.19;100.00;97438.47;10523519;28;2081;-75
2023/02/11 05:32:27;;;;;;;;;;;;;;;-1.97;100.00;97431.06;10522482;28;1962;-74
2023/02/11 05:37:29;;;;;;;;;;;;;;;-1.90;100.00;97432.09;10521827;28;2098;-75
2023/02/11 05:42:32;;;;;;;;;;;;;;;-1.82;100.00;97411.06;10520665;28;2172;-75
2023/02/11 05:47:34;;;;;;;;;;;;;;;-1.74;100.00;97412.91;10532393;28;2024;-76
2023/02/11 05:52:36;;;;;;;;;;;;;;;-1.63;100.00;97421.38;10523610;28;2028;-74
2023/02/11 05:57:39;;;;;;;;;;;;;;;-1.61;100.00;97404.56;10534376;28;1950;-73
2023/02/11 06:02:41;;;;;;;;;;;;;;;-1.52;100.00;97401.00;10527867;28;2082;-74
2023/02/11 06:07:44;;;;;;;;;;;;;;;-1.44;100.00;97391.31;10531691;28;2109;-74
2023/02/11 06:12:46;;;;;;;;;;;;;;;-1.37;100.00;97383.59;10518993;28;1978;-74
2023/02/11 06:17:48;;;;;;;;;;;;;;;-1.32;100.00;97399.78;10524048;28;2077;-75
2023/02/11 06:22:51;;;;;;;;;;;;;;;-1.22;100.00;97412.81;10527623;28;2112;-75
2023/02/11 06:27:53;;;;;;;;;;;;;;;-1.19;100.00;97413.34;10527657;28;2007;-75
2023/02/11 06:32:56;;;;;;;;;;;;;;;-1.13;100.00;97417.97;10533055;28;1966;-74
2023/02/11 06:37:58;;;;;;;;;;;;;;;-1.22;100.00;97418.09;10528170;28;1989;-75
2023/02/11 06:43:01;;;;;;;;;;;;;;;-1.19;100.00;97418.63;10527318;28;1998;-73
2023/02/11 06:48:03;;;;;;;;;;;;;;;-1.03;100.00;97398.53;10526223;28;2125;-75
2023/02/11 06:53:06;;;;;;;;;;;;;;;-1.02;100.00;97403.63;10525283;28;2216;-74
2023/02/11 06:58:08;;;;;;;;;;;;;;;-0.82;100.00;97417.41;10531938;28;1386;-75
2023/02/11 07:03:11;;;;;;;;;;;;;;;-0.70;100.00;97426.69;10528408;28;1428;-75
2023/02/11 07:08:13;;;;;;;;;;;;;;;-0.51;100.00;97433.44;10530003;28;2043;-75
2023/02/11 07:13:16;;;;;;;;;;;;;;;-0.33;100.00;97420.09;10524684;28;2010;-75
2023/02/11 07:18:18;;;;;;;;;;;;;;;-0.20;100.00;97420.41;10534729;28;1998;-75
2023/02/11 07:23:20;;;;;;;;;;;;;;;-0.19;100.00;97408.88;10524682;28;2093;-76
2023/02/11 07:28:23;;;;;;;;;;;;;;;-0.02;100.00;97392.00;10531770;28;1919;-75
2023/02/11 07:33:26;;;;;;;;;;;;;;;0.07;100.00;97394.63;10524876;28;2061;-74
2023/02/11 07:38:28;;;;;;;;;;;;;;;0.09;100.00;97411.16;10523239;28;2066;-76
2023/02/11 07:43:30;;;;;;;;;;;;;;;0.22;100.00;97401.72;10528404;28;1532;-76
2023/02/11 07:48:33;;;;;;;;;;;;;;;0.41;100.00;97392.56;10541786;28;1973;-76
2023/02/11 07:53:35;;;;;;;;;;;;;;;0.54;100.00;97392.84;10509986;28;1805;-74
2023/02/11 07:58:38;;;;;;;;;;;;;;;0.79;100.00;97401.53;10540486;28;2036;-76
2023/02/11 08:03:40;;;;;;;;;;;;;;;0.90;100.00;97376.50;10521883;28;1962;-76
2023/02/11 08:08:43;;;;;;;;;;;;;;;1.22;100.00;97372.84;10523246;28;2081;-76
2023/02/11 08:13:45;;;;;;;;;;;;;;;1.54;100.00;97377.06;10525210;28;2066;-74
2023/02/11 08:18:47;;;;;;;;;;;;;;;1.88;100.00;97373.13;10521880;28;1966;-73
2023/02/11 08:23:50;;;;;;;;;;;;;;;2.14;100.00;97362.94;10525163;28;1970;-76
2023/02/11 08:28:52;;;;;;;;;;;;;;;2.25;100.00;97355.53;10519027;28;1966;-74
2023/02/11 08:33:56;;;;;;;;;;;;;;;2.34;100.00;97367.69;10517210;28;1974;-74
2023/02/11 08:39:01;;;;;;;;;;;;;;;2.16;100.00;97374.22;10523443;28;1943;-74
2023/02/11 08:44:19;;;;;;;;;;;;;;;2.40;100.00;97396.16;10522924;28;2030;-75
2023/02/11 08:49:22;;;;;;;;;;;;;;;2.43;100.00;97390.50;10516968;28;2078;-75
2023/02/11 08:54:24;;;;;;;;;;;;;;;2.64;100.00;97387.94;10526333;28;1965;-75
2023/02/11 08:59:26;;;;;;;;;;;;;;;2.95;99.54;97392.22;10519949;28;1977;-76
2023/02/11 09:04:29;;;;;;;;;;;;;;;3.38;96.62;97379.00;10519865;28;1974;-74
2023/02/11 09:09:31;;;;;;;;;;;;;;;3.63;94.87;97376.81;10526271;28;1973;-75
2023/02/11 09:14:34;;;;;;;;;;;;;;;3.72;92.82;97360.50;10539240;28;1992;-74
2023/02/11 09:19:36;;;;;;;;;;;;;;;3.70;92.84;97365.19;10517000;28;2074;-76
2023/02/11 09:24:38;;;;;;;;;;;;;;;3.99;91.78;97363.38;10526938;28;2010;-75
2023/02/11 09:29:41;;;;;;;;;;;;;;;3.86;93.56;97345.47;10529676;28;2077;-76
2023/02/11 09:34:43;;;;;;;;;;;;;;;4.06;89.27;97356.25;10531379;28;2045;-75
2023/02/11 09:39:46;;;;;;;;;;;;;;;4.06;90.75;97359.75;10529524;28;1978;-75
2023/02/11 09:44:48;;;;;;;;;;;;;;;3.71;90.52;97369.50;10537021;28;2034;-76
2023/02/11 09:49:50;;;;;;;;;;;;;;;3.83;92.99;97367.16;10500651;28;2114;-75
2023/02/11 09:54:52;;;;;;;;;;;;;;;3.91;92.63;97376.84;10527357;28;1966;-74
2023/02/11 09:59:56;;;;;;;;;;;;;;;3.98;92.52;97359.06;10535824;28;1950;-74
2023/02/11 10:04:58;;;;;;;;;;;;;;;4.51;90.15;97338.13;10514118;28;2015;-75
2023/02/11 10:10:01;;;;;;;;;;;;;;;4.91;83.05;97338.31;10520796;28;1919;-75
2023/02/11 10:15:03;;;;;;;;;;;;;;;5.11;82.63;97331.19;10520114;28;1969;-76
2023/02/11 10:20:05;;;;;;;;;;;;;;;5.30;79.55;97335.75;10545370;28;2560;-75
2023/02/11 10:25:08;;;;;;;;;;;;;;;5.21;79.30;97342.28;10521177;28;2129;-74
2023/02/11 10:30:10;;;;;;;;;;;;;;;4.90;83.39;97353.50;10521229;28;2027;-74
2023/02/11 10:35:14;;;;;;;;;;;;;;;4.87;87.81;97344.03;10519729;28;2030;-75
2023/02/11 10:40:16;;;;;;;;;;;;;;;5.17;85.72;97326.91;10529826;28;2042;-75
2023/02/11 10:45:18;;;;;;;;;;;;;;;4.82;85.44;97349.13;10528025;28;2069;-76
2023/02/11 10:50:21;;;;;;;;;;;;;;;4.91;82.96;97340.97;10526176;28;2070;-75
2023/02/11 10:55:23;;;;;;;;;;;;;;;5.36;79.19;97334.97;10521946;28;1986;-74
2023/02/11 11:00:26;;;;;;;;;;;;;;;5.85;71.79;97319.59;10529894;28;2017;-78
2023/02/11 11:05:28;;;;;;;;;;;;;;;6.22;68.19;97310.16;10525741;28;1980;-77
2023/02/11 11:10:31;;;;;;;;;;;;;;;6.47;66.70;97308.44;10523242;28;2033;-74
2023/02/11 11:15:33;;;;;;;;;;;;;;;6.43;65.00;97299.22;10527585;28;2108;-77
2023/02/11 11:20:36;;;;;;;;;;;;;;;6.76;61.48;97311.66;10518545;28;2089;-77
2023/02/11 11:25:39;;;;;;;;;;;;;;;6.55;61.13;97294.03;10520185;28;2100;-74
2023/02/11 11:30:41;;;;;;;;;;;;;;;6.70;59.12;97289.25;10529826;28;2030;-74
2023/02/11 11:35:44;;;;;;;;;;;;;;;6.30;56.14;97296.59;10528252;28;2128;-74
2023/02/11 11:40:46;;;;;;;;;;;;;;;6.39;56.50;97281.16;10526339;28;2046;-74
2023/02/11 11:45:49;;;;;;;;;;;;;;;6.53;54.46;97274.72;10524397;28;2074;-75
2023/02/11 11:50:51;;;;;;;;;;;;;;;7.20;52.45;97283.25;10518742;28;1978;-76
2023/02/11 11:55:54;;;;;;;;;;;;;;;7.28;50.86;97291.03;10522619;28;1978;-76
2023/02/11 12:01:00;;;;;;;;;;;;;;;7.10;53.35;97289.06;10523705;28;2080;-77
2023/02/11 12:06:03;;;;;;;;;;;;;;;6.63;55.45;97290.31;10519963;28;1971;-75
2023/02/11 12:11:06;;;;;;;;;;;;;;;6.62;54.73;97275.31;10524326;28;1979;-75
2023/02/11 12:16:08;;;;;;;;;;;;;;;6.96;53.83;97264.25;10526678;28;2086;-74
2023/02/11 12:21:11;;;;;;;;;;;;;;;6.76;52.56;97276.91;10519962;28;1943;-75
2023/02/11 12:26:13;;;;;;;;;;;;;;;6.35;53.25;97288.75;10511470;28;2096;-74
2023/02/11 12:31:16;;;;;;;;;;;;;;;6.50;54.38;97270.63;10503255;28;1970;-74
2023/02/11 12:36:19;;;;;;;;;;;;;;;6.97;53.82;97257.88;10528254;28;1915;-76
2023/02/11 12:43:14;;;;;;;;;;;;;;;6.91;53.41;97257.91;10521140;28;2105;-74
2023/02/11 12:46:44;;;;;;;;;;;;;;;6.92;53.73;97247.00;10512424;28;2046;-73
2023/02/11 12:51:46;;;;;;;;;;;;;;;6.72;53.97;97249.78;10520012;28;1979;-73
2023/02/11 12:56:49;;;;;;;;;;;;;;;6.39;55.72;97247.25;10538161;28;1998;-76
2023/02/11 13:01:51;;;;;;;;;;;;;;;6.15;57.21;97240.72;10524305;28;2038;-77
2023/02/11 13:06:54;;;;;;;;;;;;;;;5.77;58.77;97237.09;10530533;28;1965;-75
2023/02/11 13:11:56;;;;;;;;;;;;;;;5.60;60.92;97231.38;10531639;28;1987;-75
2023/02/11 13:16:58;;;;;;;;;;;;;;;5.40;62.19;97232.16;10532100;28;1982;-75
2023/02/11 13:22:01;;;;;;;;;;;;;;;5.71;62.32;97225.38;10531332;28;1966;-74
2023/02/11 13:27:04;;;;;;;;;;;;;;;6.14;61.28;97220.41;10526246;28;2081;-75
2023/02/11 13:32:06;;;;;;;;;;;;;;;6.40;59.19;97198.13;10530950;28;2081;-75
2023/02/11 13:37:09;;;;;;;;;;;;;;;6.64;58.08;97201.09;10529082;28;2020;-74
2023/02/11 13:42:11;;;;;;;;;;;;;;;6.78;57.09;97198.13;10530178;28;2128;-76
2023/02/11 13:47:15;;;;;;;;;;;;;;;6.89;55.55;97195.81;10544113;28;2068;-75
2023/02/11 13:52:17;;;;;;;;;;;;;;;6.85;55.44;97208.78;10528912;28;2014;-76
2023/02/11 13:57:20;;;;;;;;;;;;;;;6.86;54.29;97204.25;10528777;28;1966;-75
2023/02/11 14:13:02;;;;;;;;;;;;;;;7.05;51.46;97204.13;10526285;28;2098;-76
2023/02/11 14:18:05;;;;;;;;;;;;;;;7.05;52.26;97200.66;10525068;28;1966;-75
2023/02/11 14:23:07;;;;;;;;;;;;;;;7.13;52.19;97200.41;10545989;28;2551;-75
2023/02/11 14:28:09;;;;;;;;;;;;;;;7.11;53.14;97196.28;10524912;28;1970;-76
2023/02/11 14:33:12;;;;;;;;;;;;;;;7.11;53.66;97213.16;10530729;28;2033;-76
2023/02/11 14:38:14;;;;;;;;;;;;;;;7.12;55.09;97208.63;10525329;28;2009;-75
2023/02/11 14:43:16;;;;;;;;;;;;;;;6.89;57.25;97210.00;10524070;28;2119;-75
2023/02/11 14:48:19;;;;;;;;;;;;;;;6.66;59.00;97207.88;10526045;28;2136;-74
2023/02/11 14:53:21;;;;;;;;;;;;;;;6.74;61.74;97218.34;10526196;28;2097;-75
2023/02/11 14:58:23;;;;;;;;;;;;;;;6.89;62.21;97215.34;10511223;28;1983;-75
2023/02/11 15:03:26;;;;;;;;;;;;;;;6.84;63.49;97222.38;10522597;28;2156;-74
2023/02/11 15:08:28;;;;;;;;;;;;;;;6.47;67.36;97222.97;10526142;28;1959;-75
2023/02/11 15:13:31;;;;;;;;;;;;;;;6.42;71.25;97224.63;10520134;28;2077;-75
2023/02/11 15:18:33;;;;;;;;;;;;;;;6.37;73.95;97221.78;10532848;28;2092;-76
2023/02/11 15:23:35;;;;;;;;;;;;;;;6.29;77.56;97230.00;10528898;28;1986;-75
2023/02/11 15:28:38;;;;;;;;;;;;;;;6.08;80.28;97233.78;10526972;28;1975;-76
2023/02/11 15:33:40;;;;;;;;;;;;;;;5.72;86.41;97229.69;10523520;28;2068;-74
2023/02/11 15:38:43;;;;;;;;;;;;;;;5.47;89.44;97240.19;10514904;28;2114;-76
2023/02/11 15:43:45;;;;;;;;;;;;;;;5.28;93.80;97247.16;10529888;28;2043;-75
2023/02/11 15:48:47;;;;;;;;;;;;;;;5.24;96.95;97248.59;10531777;28;1971;-75
2023/02/11 15:53:51;;;;;;;;;;;;;;;5.30;98.32;97246.97;10529032;28;1983;-77
2023/02/11 15:58:54;;;;;;;;;;;;;;;5.37;97.51;97253.09;10526219;28;1990;-74
2023/02/11 16:03:56;;;;;;;;;;;;;;;5.30;97.67;97257.63;10523517;28;1922;-74
2023/02/11 16:08:59;;;;;;;;;;;;;;;5.37;99.87;97255.78;10525780;28;1961;-74
2023/02/11 16:14:01;;;;;;;;;;;;;;;5.38;100.00;97244.09;10526896;28;2083;-75
2023/02/11 16:19:08;;;;;;;;;;;;;;;5.24;100.00;97258.44;10517600;28;2129;-74
2023/02/11 16:24:10;;;;;;;;;;;;;;;5.09;100.00;97271.91;10526994;28;1999;-75
2023/02/11 16:29:12;;;;;;;;;;;;;;;4.96;100.00;97280.72;10527360;28;1973;-73
2023/02/11 16:34:15;;;;;;;;;;;;;;;5.01;100.00;97280.13;10523106;28;2073;-73
2023/02/11 16:39:17;;;;;;;;;;;;;;;4.95;100.00;97284.41;10521987;28;2031;-75
2023/02/11 16:44:19;;;;;;;;;;;;;;;4.92;100.00;97286.66;10521832;28;1978;-76
2023/02/11 16:49:22;;;;;;;;;;;;;;;4.80;100.00;97294.41;10534472;28;1985;-75
2023/02/11 16:54:24;;;;;;;;;;;;;;;4.71;100.00;97314.22;10520783;28;2133;-74
2023/02/11 16:59:26;;;;;;;;;;;;;;;4.58;100.00;97302.53;10523419;28;2021;-75
2023/02/11 17:04:28;;;;;;;;;;;;;;;4.39;100.00;97313.06;10522999;28;1990;-78
2023/02/11 17:09:31;;;;;;;;;;;;;;;4.39;100.00;97313.06;10519843;28;2062;-75
2023/02/11 17:14:33;;;;;;;;;;;;;;;4.36;100.00;97324.94;10524855;28;2053;-74
2023/02/11 17:19:36;;;;;;;;;;;;;;;4.39;100.00;97345.00;10524693;28;2009;-75
2023/02/11 17:24:38;;;;;;;;;;;;;;;4.39;100.00;97348.53;10522939;28;1988;-74
2023/02/11 17:29:40;;;;;;;;;;;;;;;4.34;100.00;97349.09;10526675;28;1940;-75
2023/02/11 17:34:43;;;;;;;;;;;;;;;4.47;100.00;97358.19;10522272;28;2061;-75
2023/02/11 17:39:45;;;;;;;;;;;;;;;4.30;100.00;97355.81;10519105;28;2022;-78
2023/02/11 17:44:48;;;;;;;;;;;;;;;4.16;100.00;97367.41;10531297;28;2119;-76
2023/02/11 17:49:50;;;;;;;;;;;;;;;4.18;100.00;97378.66;10527266;28;2105;-73
2023/02/11 17:54:53;;;;;;;;;;;;;;;4.05;100.00;97374.06;10529144;28;2041;-73
2023/02/11 17:59:55;;;;;;;;;;;;;;;4.12;100.00;97384.75;10532839;28;1955;-74
2023/02/11 18:04:58;;;;;;;;;;;;;;;3.96;100.00;97385.06;10531401;28;1990;-76
2023/02/11 18:10:01;;;;;;;;;;;;;;;3.95;100.00;97388.75;10525835;28;1966;-74
2023/02/11 18:15:04;;;;;;;;;;;;;;;3.76;100.00;97393.69;10529144;28;2058;-75
2023/02/11 18:20:06;;;;;;;;;;;;;;;3.68;100.00;97396.47;10523830;28;2102;-75
2023/02/11 18:25:09;;;;;;;;;;;;;;;3.71;100.00;97401.41;10531870;28;2049;-75
2023/02/11 18:30:11;;;;;;;;;;;;;;;3.61;100.00;97400.09;10534264;28;2136;-75
2023/02/11 18:35:14;;;;;;;;;;;;;;;3.50;100.00;97393.44;10525054;28;2108;-75
2023/02/11 18:40:17;;;;;;;;;;;;;;;3.42;100.00;97389.06;10532091;28;2015;-74
2023/02/11 18:45:19;;;;;;;;;;;;;;;3.35;100.00;97404.13;10529141;28;2137;-77
2023/02/11 18:50:21;;;;;;;;;;;;;;;3.35;100.00;97397.97;10536793;28;1946;-76
2023/02/11 18:55:25;;;;;;;;;;;;;;;3.41;100.00;97397.22;10537569;28;1914;-76
2023/02/11 19:00:27;;;;;;;;;;;;;;;3.50;100.00;97391.59;10537602;28;1703;-74
2023/02/11 19:05:32;;;;;;;;;;;;;;;3.56;100.00;97397.97;10539666;28;1856;-74
2023/02/11 19:10:34;;;;;;;;;;;;;;;3.64;100.00;97395.22;10507507;28;2095;-75
2023/02/11 19:15:37;;;;;;;;;;;;;;;3.61;100.00;97392.91;10516751;28;1986;-75
2023/02/11 19:20:39;;;;;;;;;;;;;;;3.66;100.00;97387.03;10524401;28;1970;-75
2023/02/11 19:25:42;;;;;;;;;;;;;;;3.71;100.00;97396.09;10527958;28;2108;-75
2023/02/11 19:30:44;;;;;;;;;;;;;;;3.68;100.00;97399.13;10508378;28;2594;-76
2023/02/11 19:35:47;;;;;;;;;;;;;;;3.62;100.00;97391.91;10520518;28;2006;-74
2023/02/11 19:40:49;;;;;;;;;;;;;;;3.63;100.00;97398.06;10524531;28;2002;-76
2023/02/11 19:45:52;;;;;;;;;;;;;;;3.66;100.00;97395.84;10524200;28;1997;-75
2023/02/11 19:50:55;;;;;;;;;;;;;;;3.66;100.00;97387.88;10528163;28;1990;-77
2023/02/11 19:55:58;;;;;;;;;;;;;;;3.70;100.00;97398.97;10526046;28;2099;-76
2023/02/11 20:01:00;;;;;;;;;;;;;;;3.83;100.00;97390.28;10529707;28;1977;-75
2023/02/11 20:06:03;;;;;;;;;;;;;;;3.91;100.00;97392.78;10522105;28;1375;-76
2023/02/11 20:11:06;;;;;;;;;;;;;;;3.93;100.00;97396.06;10541858;28;1573;-76
2023/02/11 20:16:09;;;;;;;;;;;;;;;3.98;100.00;97391.81;10525486;28;1951;-74
2023/02/11 20:21:11;;;;;;;;;;;;;;;3.94;100.00;97389.72;10516978;28;2331;-74
2023/02/11 20:26:14;;;;;;;;;;;;;;;3.98;100.00;97412.28;10521913;28;1946;-75
2023/02/11 20:31:16;;;;;;;;;;;;;;;4.01;100.00;97411.94;10524328;28;2076;-74
2023/02/11 20:36:19;;;;;;;;;;;;;;;3.99;100.00;97425.41;10534893;28;1983;-75
2023/02/11 20:41:21;;;;;;;;;;;;;;;4.11;100.00;97430.22;10528692;28;2148;-76
2023/02/11 20:46:23;;;;;;;;;;;;;;;4.11;100.00;97428.38;10513900;28;2140;-75
2023/02/11 20:51:26;;;;;;;;;;;;;;;4.12;100.00;97419.38;10537999;28;1943;-75
2023/02/11 20:56:28;;;;;;;;;;;;;;;4.19;100.00;97428.22;10524145;28;1953;-75
2023/02/11 21:01:30;;;;;;;;;;;;;;;4.22;100.00;97427.84;10506290;28;2082;-75
2023/02/11 21:06:33;;;;;;;;;;;;;;;4.26;100.00;97429.13;10521049;28;1978;-77
2023/02/11 21:11:35;;;;;;;;;;;;;;;4.26;100.00;97422.94;10523641;28;2018;-76
2023/02/11 21:16:38;;;;;;;;;;;;;;;4.21;100.00;97431.53;10530784;28;2111;-76
2023/02/11 21:21:40;;;;;;;;;;;;;;;4.21;100.00;97438.69;10531409;28;2112;-75
2023/02/11 21:26:43;;;;;;;;;;;;;;;4.18;100.00;97439.88;10525082;28;1962;-76
2023/02/11 21:31:45;;;;;;;;;;;;;;;4.21;100.00;97439.53;10511189;28;1989;-74
2023/02/11 21:36:49;;;;;;;;;;;;;;;4.20;100.00;97427.22;10531310;28;1973;-77
2023/02/11 21:41:54;;;;;;;;;;;;;;;4.12;100.00;97424.69;10525466;28;1922;-74
2023/02/11 21:46:57;;;;;;;;;;;;;;;4.13;100.00;97421.00;10529566;28;2236;-74
2023/02/11 21:51:59;;;;;;;;;;;;;;;4.15;100.00;97423.50;10508651;28;2071;-75
2023/02/11 21:57:02;;;;;;;;;;;;;;;4.15;100.00;97419.00;10531226;28;2030;-76
2023/02/11 22:02:05;;;;;;;;;;;;;;;4.12;100.00;97419.38;10538262;28;1959;-75
2023/02/11 22:07:11;;;;;;;;;;;;;;;4.04;100.00;97423.00;10526629;28;1954;-75
2023/02/11 22:12:13;;;;;;;;;;;;;;;4.05;100.00;97413.16;10539942;28;1969;-75
2023/02/11 22:17:16;;;;;;;;;;;;;;;4.04;100.00;97414.19;10519630;28;1460;-75
2023/02/11 22:22:18;;;;;;;;;;;;;;;4.08;100.00;97412.81;10536621;28;1970;-75
2023/02/11 22:27:21;;;;;;;;;;;;;;;3.96;100.00;97417.00;10523080;28;1971;-76
2023/02/11 22:32:23;;;;;;;;;;;;;;;4.01;100.00;97418.06;10529734;28;2002;-76
2023/02/11 22:37:26;;;;;;;;;;;;;;;4.00;100.00;97432.34;10524909;28;2066;-75
2023/02/11 22:42:28;;;;;;;;;;;;;;;3.97;100.00;97439.91;10528991;28;1950;-75
2023/02/11 22:47:31;;;;;;;;;;;;;;;4.01;100.00;97436.69;10523452;28;2092;-76
2023/02/11 22:52:33;;;;;;;;;;;;;;;4.04;100.00;97448.78;10520722;28;2057;-75
2023/02/11 22:57:36;;;;;;;;;;;;;;;3.98;100.00;97438.91;10517894;28;1978;-75
2023/02/11 23:02:38;;;;;;;;;;;;;;;3.90;100.00;97453.16;10528382;28;1978;-75
2023/02/11 23:07:40;;;;;;;;;;;;;;;3.79;100.00;97457.13;10530633;28;2029;-75
2023/02/11 23:12:43;;;;;;;;;;;;;;;3.78;100.00;97466.13;10533455;28;2070;-74
2023/02/11 23:17:45;;;;;;;;;;;;;;;3.84;100.00;97469.06;10545754;28;2025;-74
2023/02/11 23:22:48;;;;;;;;;;;;;;;3.81;100.00;97464.94;10533080;28;2009;-77
2023/02/11 23:27:50;;;;;;;;;;;;;;;3.89;100.00;97466.66;10535474;28;2151;-78
2023/02/11 23:32:52;;;;;;;;;;;;;;;3.88;100.00;97471.16;10537610;28;1906;-77
2023/02/11 23:37:55;;;;;;;;;;;;;;;3.83;100.00;97478.06;10540861;28;1460;-77
2023/02/11 23:42:57;;;;;;;;;;;;;;;3.84;100.00;97469.06;10547020;28;1179;-74
2023/02/11 23:48:00;;;;;;;;;;;;;;;3.82;100.00;97476.38;10538264;28;1459;-75
2023/02/11 23:53:02;;;;;;;;;;;;;;;3.69;100.00;97493.03;10532403;28;1918;-76
2023/02/11 23:58:05;;;;;;;;;;;;;;;3.66;100.00;97498.75;10535697;28;1381;-76
